Time;durP1;ratioP1;P1;durP2;ratioP2;P2;SDS_P1;SDS_P2;PMS_P1;PMS_P2;Temp;Humidity;BMP_temperature;BMP_pressure;BME280_temperature;BME280_humidity;BME280_pressure;Samples;Min_cycle;Max_cycle;Signal;HPM_P1;HPM_P2
2022/08/13 00:01:37;;;;;;;6.78;4.95;;;;;;;21.13;44.39;101528.25;5032966;28;20036;-72
2022/08/13 00:04:13;;;;;;;7.82;5.43;;;;;;;21.08;44.16;101530.28;5041765;28;20033;-72
2022/08/13 00:09:07;;;;;;;11.30;5.25;;;;;;;20.95;44.63;101534.56;5034628;28;20038;-72
2022/08/13 00:14:18;;;;;;;9.63;5.07;;;;;;;20.83;45.08;101537.91;5032416;28;20040;-72
2022/08/13 00:16:43;;;;;;;6.47;4.55;;;;;;;20.71;44.86;101537.66;5034331;28;20398;-72
2022/08/13 00:19:09;;;;;;;6.35;4.90;;;;;;;20.75;45.07;101539.19;5033988;28;20468;-72
2022/08/13 00:21:34;;;;;;;7.18;4.95;;;;;;;20.65;45.51;101531.84;5031873;28;20385;-72
2022/08/13 00:24:00;;;;;;;8.00;4.90;;;;;;;20.56;45.73;101535.84;5031598;28;20029;-72
2022/08/13 00:26:27;;;;;;;7.22;5.40;;;;;;;20.51;46.00;101532.59;5033061;28;20029;-72
2022/08/13 00:28:55;;;;;;;8.32;5.70;;;;;;;20.43;46.70;101542.69;5033035;28;20021;-72
2022/08/13 00:31:22;;;;;;;10.82;5.50;;;;;;;20.42;46.48;101535.69;5033535;28;20029;-72
2022/08/13 00:33:47;;;;;;;12.57;5.50;;;;;;;20.41;46.82;101536.66;5030603;28;20033;-72
2022/08/13 00:36:13;;;;;;;6.88;5.63;;;;;;;20.29;47.49;101535.50;5032659;28;20037;-72
2022/08/13 00:38:40;;;;;;;11.23;5.60;;;;;;;20.26;47.84;101531.22;5032373;28;20038;-71
2022/08/13 00:41:13;;;;;;;8.93;5.03;;;;;;;20.16;47.84;101535.28;5033252;28;20134;-72
2022/08/13 00:43:39;;;;;;;9.23;4.97;;;;;;;20.21;48.03;101542.97;5031745;28;20041;-72
2022/08/13 00:46:05;;;;;;;7.20;5.18;;;;;;;20.14;48.31;101533.66;5033816;28;20032;-72
2022/08/13 00:48:42;;;;;;;6.70;4.88;;;;;;;20.10;48.54;101535.59;5032508;28;20025;-72
2022/08/13 00:51:09;;;;;;;6.47;5.00;;;;;;;20.06;48.54;101536.72;5034017;28;20032;-72
2022/08/13 00:53:38;;;;;;;8.40;5.10;;;;;;;20.00;48.59;101539.66;5031950;28;20484;-72
2022/08/13 00:56:05;;;;;;;10.05;5.00;;;;;;;19.92;49.04;101537.44;5031605;28;20030;-72
2022/08/13 00:58:34;;;;;;;6.25;4.90;;;;;;;19.94;48.83;101537.34;5033114;28;20366;-72
2022/08/13 01:01:01;;;;;;;6.95;4.85;;;;;;;19.87;49.39;101545.59;5038099;28;20029;-72
2022/08/13 01:03:29;;;;;;;6.72;4.28;;;;;;;19.85;49.43;101541.34;5030914;28;20116;-72
2022/08/13 01:05:58;;;;;;;7.15;5.15;;;;;;;19.86;49.12;101548.31;5031735;28;20389;-71
2022/08/13 01:08:24;;;;;;;5.70;4.65;;;;;;;19.77;49.48;101539.06;5032941;28;20033;-72
2022/08/13 01:10:49;;;;;;;7.18;5.00;;;;;;;19.76;49.31;101547.09;5032413;28;20032;-72
2022/08/13 01:13:18;;;;;;;8.93;5.22;;;;;;;19.74;49.35;101543.66;5032061;28;20113;-72
2022/08/13 01:15:44;;;;;;;6.13;4.95;;;;;;;19.70;49.44;101537.66;5033170;28;20465;-72
2022/08/13 01:18:14;;;;;;;5.22;4.72;;;;;;;19.72;49.44;101542.88;5031798;28;20045;-72
2022/08/13 01:21:01;;;;;;;7.70;5.30;;;;;;;19.69;49.51;101535.97;5033082;28;20026;-72
2022/08/13 01:23:30;;;;;;;5.90;4.53;;;;;;;19.61;49.96;101535.44;5030081;28;20075;-72
2022/08/13 01:25:59;;;;;;;6.28;4.85;;;;;;;19.59;50.18;101547.91;5032298;28;20029;-72
2022/08/13 01:28:28;;;;;;;9.02;5.25;;;;;;;19.55;50.40;101543.69;5031124;28;20025;-72
2022/08/13 01:31:04;;;;;;;9.68;5.00;;;;;;;19.49;49.88;101543.97;5032315;28;20033;-72
2022/08/13 01:33:30;;;;;;;7.50;5.20;;;;;;;19.40;50.63;101551.44;5031435;28;20037;-72
2022/08/13 01:35:55;;;;;;;8.30;5.25;;;;;;;19.36;50.78;101547.25;5032950;28;20021;-72
2022/08/13 01:38:23;;;;;;;6.57;4.93;;;;;;;19.34;50.57;101545.59;5029130;28;20130;-72
2022/08/13 01:40:49;;;;;;;7.07;5.38;;;;;;;19.27;51.02;101550.34;5047369;28;20480;-72
2022/08/13 01:43:17;;;;;;;6.40;5.30;;;;;;;19.24;51.55;101542.56;5051421;28;20049;-71
2022/08/13 01:45:44;;;;;;;7.68;5.15;;;;;;;19.20;51.56;101537.50;5031343;28;20535;-71
2022/08/13 01:50:54;;;;;;;7.78;4.70;;;;;;;19.07;51.78;101542.53;5051176;28;20034;-71
2022/08/13 01:53:19;;;;;;;7.20;5.03;;;;;;;19.08;51.81;101544.22;5051074;28;20394;-72
2022/08/13 01:55:48;;;;;;;7.72;4.90;;;;;;;19.04;52.19;101542.66;5045626;28;20128;-72
2022/08/13 01:58:19;;;;;;;8.23;4.80;;;;;;;18.95;52.29;101539.53;5051698;28;20029;-72
2022/08/13 02:00:47;;;;;;;6.55;4.82;;;;;;;18.91;52.86;101537.09;5051729;28;20025;-72
2022/08/13 02:03:14;;;;;;;6.88;4.45;;;;;;;18.90;53.26;101538.00;5052202;28;20025;-72
2022/08/13 02:05:40;;;;;;;8.65;4.53;;;;;;;18.85;52.89;101537.41;5032930;28;20048;-71
2022/08/13 02:08:08;;;;;;;5.75;4.20;;;;;;;18.80;52.43;101527.06;5050216;28;20036;-71
2022/08/13 02:10:35;;;;;;;7.63;4.80;;;;;;;18.85;52.75;101534.75;5051699;28;20029;-71
2022/08/13 02:13:00;;;;;;;7.40;4.65;;;;;;;18.84;52.97;101535.69;5049734;28;20029;-72
2022/08/13 02:15:26;;;;;;;6.53;5.20;;;;;;;18.80;53.02;101537.63;5043002;28;20079;-71
2022/08/13 02:17:52;;;;;;;9.05;4.60;;;;;;;18.81;52.48;101539.31;5051781;28;20087;-72
2022/08/13 02:20:17;;;;;;;7.60;4.90;;;;;;;18.67;53.13;101524.09;5043911;28;20025;-71
2022/08/13 02:22:45;;;;;;;5.20;4.07;;;;;;;18.78;52.71;101546.53;5052157;28;20107;-72
2022/08/13 02:25:12;;;;;;;5.55;4.43;;;;;;;18.70;53.08;101539.81;5045272;28;20029;-71
2022/08/13 02:27:38;;;;;;;6.93;4.15;;;;;;;18.68;53.21;101536.38;5044086;28;20025;-71
2022/08/13 02:30:07;;;;;;;5.40;4.40;;;;;;;18.62;53.63;101536.66;5036960;28;20032;-72
2022/08/13 02:32:33;;;;;;;7.15;4.57;;;;;;;18.58;53.54;101535.06;5051323;28;20032;-72
2022/08/13 02:34:58;;;;;;;8.88;4.57;;;;;;;18.56;54.05;101541.34;5042778;28;20025;-72
2022/08/13 02:37:24;;;;;;;7.93;4.40;;;;;;;18.57;53.96;101538.63;5051077;28;20117;-72
2022/08/13 02:39:51;;;;;;;7.30;4.40;;;;;;;18.53;54.50;101541.50;5036786;28;20049;-72
2022/08/13 02:42:17;;;;;;;5.30;4.80;;;;;;;18.50;54.13;101534.56;5049447;28;20025;-72
2022/08/13 02:44:47;;;;;;;8.45;4.25;;;;;;;18.45;54.17;101536.56;5045577;28;20033;-72
2022/08/13 02:47:13;;;;;;;4.97;4.47;;;;;;;18.45;54.41;101539.22;5049239;28;20476;-71
2022/08/13 02:49:40;;;;;;;5.85;4.28;;;;;;;18.42;54.83;101534.06;5043821;28;20022;-71
2022/08/13 02:52:06;;;;;;;5.63;3.95;;;;;;;18.35;54.73;101544.03;5046598;28;20090;-71
2022/08/13 02:54:33;;;;;;;4.97;4.10;;;;;;;18.31;54.61;101541.59;5043526;28;20028;-71
2022/08/13 02:56:58;;;;;;;5.38;4.53;;;;;;;18.21;55.86;101528.84;5036921;28;20036;-71
2022/08/13 02:59:24;;;;;;;7.57;4.68;;;;;;;18.27;55.33;101538.22;5030240;28;20109;-72
2022/08/13 03:01:51;;;;;;;5.95;4.43;;;;;;;18.22;55.27;101542.88;5029870;28;20026;-71
2022/08/13 03:04:16;;;;;;;8.40;4.80;;;;;;;18.21;56.04;101542.03;5030603;28;20029;-71
2022/08/13 03:06:42;;;;;;;9.05;4.60;;;;;;;18.16;55.55;101537.88;5031651;28;20037;-72
2022/08/13 03:09:07;;;;;;;6.00;4.50;;;;;;;18.13;55.70;101543.28;5029985;28;20028;-71
2022/08/13 03:11:33;;;;;;;5.13;4.15;;;;;;;18.01;56.34;101536.75;5029605;28;20465;-71
2022/08/13 03:14:07;;;;;;;8.45;4.60;;;;;;;17.96;56.44;101546.66;5031608;28;20466;-71
2022/08/13 03:16:34;;;;;;;5.90;4.35;;;;;;;17.85;57.44;101549.72;5030338;28;20036;-71
2022/08/13 03:19:00;;;;;;;8.88;4.72;;;;;;;17.86;56.88;101543.56;5029370;28;20029;-71
2022/08/13 03:21:29;;;;;;;5.47;4.50;;;;;;;17.82;57.70;101547.25;5030438;28;20029;-71
2022/08/13 03:23:55;;;;;;;7.03;4.38;;;;;;;17.76;57.89;101547.47;5030575;28;20025;-71
2022/08/13 03:26:21;;;;;;;6.43;4.75;;;;;;;17.70;57.96;101542.44;5030622;28;20108;-71
2022/08/13 03:28:50;;;;;;;6.63;4.78;;;;;;;17.67;58.28;101547.84;5030530;28;20020;-71
2022/08/13 03:31:20;;;;;;;7.68;4.47;;;;;;;17.58;58.86;101546.44;5029806;28;20536;-71
2022/08/13 03:33:46;;;;;;;7.90;4.55;;;;;;;17.56;59.20;101540.41;5029222;28;20083;-71
2022/08/13 03:36:13;;;;;;;6.40;4.60;;;;;;;17.54;58.98;101542.22;5030259;28;20030;-71
2022/08/13 03:38:38;;;;;;;8.02;4.60;;;;;;;17.50;58.41;101549.41;5030057;28;20021;-71
2022/08/13 03:41:14;;;;;;;7.05;4.57;;;;;;;17.42;59.41;101551.50;5030527;28;20028;-71
2022/08/13 03:43:45;;;;;;;9.27;4.97;;;;;;;17.39;59.41;101551.59;5030010;28;20087;-71
2022/08/13 03:46:13;;;;;;;6.43;4.60;;;;;;;17.33;59.55;101549.25;5030757;28;20061;-71
2022/08/13 03:48:38;;;;;;;5.72;4.40;;;;;;;17.34;59.43;101550.97;5044293;28;20111;-71
2022/08/13 03:51:04;;;;;;;6.32;4.70;;;;;;;17.31;59.35;101554.56;5035611;28;20116;-71
2022/08/13 03:53:30;;;;;;;8.85;4.90;;;;;;;17.25;59.86;101549.53;5036652;28;20029;-71
2022/08/13 03:55:58;;;;;;;6.40;4.40;;;;;;;17.22;59.60;101547.03;5049646;28;20076;-71
2022/08/13 03:58:24;;;;;;;8.13;5.00;;;;;;;17.20;59.91;101550.63;5038756;28;20029;-71
2022/08/13 04:00:49;;;;;;;10.45;4.70;;;;;;;17.16;59.50;101538.50;5031852;28;20029;-71
2022/08/13 04:03:19;;;;;;;5.60;4.55;;;;;;;17.06;59.90;101541.50;5035757;28;20129;-71
2022/08/13 04:05:45;;;;;;;8.90;4.75;;;;;;;17.08;60.37;101550.22;5043736;28;20139;-71
2022/08/13 04:08:10;;;;;;;4.82;4.43;;;;;;;17.00;60.31;101533.88;5054447;28;20063;-71
2022/08/13 04:10:37;;;;;;;7.85;4.90;;;;;;;16.98;60.46;101542.75;5039185;28;20037;-71
2022/08/13 04:13:03;;;;;;;6.18;4.53;;;;;;;16.96;60.44;101537.50;5049643;28;20127;-71
2022/08/13 04:15:29;;;;;;;7.75;4.93;;;;;;;16.95;60.26;101541.06;5053768;28;20079;-71
2022/08/13 04:17:54;;;;;;;5.82;4.70;;;;;;;16.87;61.10;101543.13;5053842;28;20032;-71
2022/08/13 04:20:20;;;;;;;11.80;4.47;;;;;;;16.84;61.04;101541.50;5034208;28;20409;-71
2022/08/13 04:22:45;;;;;;;6.05;5.13;;;;;;;16.81;61.17;101552.16;5049488;28;20067;-71
2022/08/13 04:25:11;;;;;;;6.68;5.07;;;;;;;16.77;61.07;101545.25;5049193;28;20465;-71
2022/08/13 04:27:36;;;;;;;7.38;5.32;;;;;;;16.77;61.08;101554.94;5050571;28;20024;-71
2022/08/13 04:30:04;;;;;;;8.40;5.03;;;;;;;16.75;61.37;101554.16;5046995;28;20021;-71
2022/08/13 04:32:39;;;;;;;7.72;5.18;;;;;;;16.71;60.72;101547.22;5038568;28;20037;-71
2022/08/13 04:35:05;;;;;;;6.05;5.13;;;;;;;16.70;61.60;101556.91;5053822;28;20029;-71
2022/08/13 04:37:31;;;;;;;8.00;4.93;;;;;;;16.74;61.42;101557.66;5053106;28;20040;-71
2022/08/13 04:39:57;;;;;;;10.45;5.18;;;;;;;16.70;61.83;101559.53;5040754;28;20496;-71
2022/08/13 04:42:22;;;;;;;10.43;5.30;;;;;;;16.76;61.83;101555.88;5034360;28;20040;-72
2022/08/13 04:44:48;;;;;;;9.18;5.57;;;;;;;16.77;61.82;101547.03;5043188;28;20036;-71
2022/08/13 04:47:13;;;;;;;6.18;5.00;;;;;;;16.88;61.74;101550.13;5053190;28;20369;-71
2022/08/13 04:49:38;;;;;;;11.02;4.80;;;;;;;16.93;61.54;101552.59;5042613;28;20029;-71
2022/08/13 04:52:03;;;;;;;7.78;5.03;;;;;;;16.98;61.48;101555.91;5041613;28;20465;-71
2022/08/13 04:54:29;;;;;;;9.60;5.05;;;;;;;17.00;60.98;101556.69;5052354;28;20056;-71
2022/08/13 04:56:55;;;;;;;6.53;5.25;;;;;;;16.99;60.42;101550.56;5046546;28;20024;-71
2022/08/13 04:59:22;;;;;;;8.90;5.40;;;;;;;17.15;60.21;101557.88;5051041;28;20053;-71
2022/08/13 05:01:47;;;;;;;6.70;5.05;;;;;;;17.22;59.64;101556.72;5052430;28;20490;-71
2022/08/13 05:04:13;;;;;;;11.02;5.20;;;;;;;17.27;59.42;101557.41;5053313;28;20116;-71
2022/08/13 05:06:38;;;;;;;7.32;4.95;;;;;;;17.32;59.20;101563.31;5052669;28;20025;-71
2022/08/13 05:09:03;;;;;;;6.82;4.63;;;;;;;17.33;59.26;101554.53;5045908;28;20033;-71
2022/08/13 05:11:29;;;;;;;8.35;5.22;;;;;;;17.40;59.26;101560.41;5040764;28;20108;-71
2022/08/13 05:13:54;;;;;;;9.93;4.93;;;;;;;17.40;59.44;101557.75;5040907;28;20035;-71
2022/08/13 05:16:20;;;;;;;5.40;4.70;;;;;;;17.44;59.80;101554.94;5051719;28;20036;-71
2022/08/13 05:18:51;;;;;;;7.25;4.75;;;;;;;17.55;59.59;101557.97;5053098;28;20528;-71
2022/08/13 05:21:20;;;;;;;9.77;5.20;;;;;;;17.62;59.63;101563.00;5038299;28;20020;-71
2022/08/13 05:23:46;;;;;;;8.05;4.97;;;;;;;17.64;59.63;101566.44;5051596;28;20033;-71
2022/08/13 05:26:12;;;;;;;7.65;4.80;;;;;;;17.76;59.89;101568.56;5052829;28;20021;-71
2022/08/13 05:28:37;;;;;;;9.55;5.32;;;;;;;17.82;59.37;101568.34;5051747;28;20024;-71
2022/08/13 05:31:04;;;;;;;7.90;5.50;;;;;;;17.81;58.37;101574.53;5032726;28;20460;-71
2022/08/13 05:33:30;;;;;;;7.43;5.28;;;;;;;17.92;59.18;101571.44;5040368;28;20037;-71
2022/08/13 05:36:02;;;;;;;7.10;5.10;;;;;;;17.98;58.94;101563.25;5052658;28;20035;-71
2022/08/13 05:38:29;;;;;;;6.55;5.00;;;;;;;18.05;59.50;101571.75;5051393;28;20115;-71
2022/08/13 05:41:04;;;;;;;7.70;5.63;;;;;;;18.11;58.36;101564.44;5046639;28;20032;-71
2022/08/13 05:43:32;;;;;;;7.43;5.57;;;;;;;18.16;58.23;101569.53;5051208;28;20048;-71
2022/08/13 05:46:02;;;;;;;13.73;4.95;;;;;;;18.21;57.73;101565.78;5052616;28;20025;-71
2022/08/13 05:48:34;;;;;;;8.57;5.20;;;;;;;18.31;57.98;101555.66;5041712;28;20504;-71
2022/08/13 05:51:03;;;;;;;10.25;5.55;;;;;;;18.25;56.06;101554.16;5027792;28;20420;-71
2022/08/13 05:53:31;;;;;;;10.50;5.55;;;;;;;18.43;57.24;101568.31;5032840;28;20381;-71
2022/08/13 05:55:56;;;;;;;6.03;5.10;;;;;;;18.50;56.31;101568.88;5051306;28;20071;-71
2022/08/13 05:58:23;;;;;;;10.40;4.90;;;;;;;18.58;57.22;101569.41;5043262;28;20564;-71
2022/08/13 06:03:35;;;;;;;9.52;5.57;;;;;;;18.72;57.16;101558.25;5043341;28;20039;-71
2022/08/13 06:06:04;;;;;;;10.02;5.68;;;;;;;18.77;56.21;101558.91;5038291;28;20139;-71
2022/08/13 06:08:32;;;;;;;6.80;5.60;;;;;;;18.85;54.94;101569.09;5041895;28;20029;-73
2022/08/13 06:10:59;;;;;;;7.05;5.25;;;;;;;18.92;53.73;101573.16;5036737;28;20025;-72
2022/08/13 06:13:26;;;;;;;6.25;4.93;;;;;;;18.98;55.57;101562.31;5030111;28;20034;-73
2022/08/13 06:16:00;;;;;;;7.63;5.15;;;;;;;19.05;54.48;101561.06;5046993;28;20029;-73
2022/08/13 06:18:35;;;;;;;8.63;5.47;;;;;;;19.13;54.20;101560.75;5041704;28;20033;-73
2022/08/13 06:21:06;;;;;;;7.47;5.18;;;;;;;19.20;53.77;101559.50;5046503;28;20071;-73
2022/08/13 06:23:37;;;;;;;7.10;5.80;;;;;;;19.24;53.54;101555.78;5037789;28;20116;-73
2022/08/13 06:26:04;;;;;;;8.23;5.30;;;;;;;19.33;53.81;101559.78;5044422;28;20041;-74
2022/08/13 06:28:32;;;;;;;6.22;4.63;;;;;;;19.42;53.05;101560.19;5051370;28;20433;-74
2022/08/13 06:31:00;;;;;;;9.30;5.57;;;;;;;19.53;53.19;101564.06;5051983;28;20029;-73
2022/08/13 06:33:27;;;;;;;8.07;5.32;;;;;;;19.61;52.76;101567.19;5034838;28;20120;-72
2022/08/13 06:35:59;;;;;;;14.00;5.30;;;;;;;19.73;53.75;101560.47;5042289;28;20519;-73
2022/08/13 06:38:37;;;;;;;7.25;5.50;;;;;;;19.79;53.40;101568.09;5050161;28;20579;-72
2022/08/13 06:41:05;;;;;;;7.68;5.00;;;;;;;19.85;51.87;101571.28;5050912;28;20472;-71
2022/08/13 06:43:39;;;;;;;8.27;5.53;;;;;;;19.91;51.37;101564.81;5031360;28;20052;-71
2022/08/13 06:46:05;;;;;;;8.93;5.30;;;;;;;20.00;51.24;101560.84;5042903;28;20104;-71
2022/08/13 06:48:33;;;;;;;5.38;4.88;;;;;;;20.07;49.97;101570.16;5028780;28;20140;-72
2022/08/13 06:50:59;;;;;;;13.60;5.28;;;;;;;20.14;48.84;101563.63;5049966;28;20021;-72
2022/08/13 06:53:24;;;;;;;9.93;5.18;;;;;;;20.24;50.13;101564.00;5031857;28;20029;-72
2022/08/13 06:55:52;;;;;;;10.43;5.50;;;;;;;20.29;48.49;101562.81;5037562;28;20043;-72
2022/08/13 06:58:25;;;;;;;8.00;5.72;;;;;;;20.34;49.17;101565.25;5037887;28;20033;-72
2022/08/13 07:00:53;;;;;;;9.10;5.57;;;;;;;20.42;48.49;101573.63;5036889;28;20370;-72
2022/08/13 07:03:19;;;;;;;9.73;5.25;;;;;;;20.50;49.05;101574.09;5034596;28;20053;-72
2022/08/13 07:05:44;;;;;;;6.28;5.03;;;;;;;20.58;48.35;101568.41;5038284;28;20064;-72
2022/08/13 07:08:11;;;;;;;5.75;4.97;;;;;;;20.68;48.56;101574.91;5036179;28;20133;-72
2022/08/13 07:10:43;;;;;;;8.30;4.75;;;;;;;20.78;48.90;101567.31;5032592;28;20034;-72
2022/08/13 07:13:08;;;;;;;7.13;5.22;;;;;;;20.87;46.12;101574.75;5050216;28;20495;-72
2022/08/13 07:15:34;;;;;;;7.43;4.40;;;;;;;20.94;46.76;101575.28;5048411;28;20036;-72
2022/08/13 07:17:59;;;;;;;5.40;4.40;;;;;;;20.98;46.98;101567.06;5035230;28;20029;-72
2022/08/13 07:20:25;;;;;;;8.00;4.22;;;;;;;21.05;47.45;101570.22;5044353;28;20021;-72
2022/08/13 07:22:53;;;;;;;7.35;4.20;;;;;;;21.18;46.35;101578.34;5049923;28;20031;-72
2022/08/13 07:25:22;;;;;;;10.50;4.43;;;;;;;21.26;46.09;101582.28;5041695;28;20053;-73
2022/08/13 07:27:50;;;;;;;9.23;3.83;;;;;;;21.36;46.51;101576.50;5051399;28;20017;-72
2022/08/13 07:30:15;;;;;;;9.48;4.35;;;;;;;21.46;46.61;101573.22;5040813;28;20474;-73
2022/08/13 07:32:41;;;;;;;7.35;3.75;;;;;;;21.53;45.82;101565.75;5047645;28;20033;-72
2022/08/13 07:35:08;;;;;;;6.43;3.88;;;;;;;21.59;45.48;101578.69;5037074;28;20033;-72
2022/08/13 07:37:34;;;;;;;7.47;3.97;;;;;;;21.65;46.08;101573.03;5043179;28;20033;-72
2022/08/13 07:40:01;;;;;;;7.00;3.72;;;;;;;21.70;46.15;101576.25;5044163;28;20108;-72
2022/08/13 07:42:28;;;;;;;7.80;3.45;;;;;;;21.84;44.81;101578.06;5048171;28;20468;-71
2022/08/13 07:44:53;;;;;;;8.30;3.80;;;;;;;21.93;44.43;101576.69;5053873;28;20397;-72
2022/08/13 07:47:20;;;;;;;10.18;3.78;;;;;;;21.97;44.20;101571.13;5054376;28;20017;-71
2022/08/13 07:49:46;;;;;;;4.45;3.70;;;;;;;22.02;45.41;101575.28;5037247;28;20032;-72
2022/08/13 07:52:13;;;;;;;4.40;3.42;;;;;;;22.08;45.08;101578.44;5037259;28;20037;-71
2022/08/13 07:54:40;;;;;;;9.65;3.70;;;;;;;22.17;45.59;101575.25;5054405;28;20021;-72
2022/08/13 07:57:05;;;;;;;5.80;3.30;;;;;;;22.26;44.71;101572.97;5048199;28;20055;-71
2022/08/13 07:59:31;;;;;;;4.00;2.95;;;;;;;22.35;44.68;101577.72;5037556;28;20030;-72
2022/08/13 08:01:57;;;;;;;6.03;3.42;;;;;;;22.49;44.00;101575.06;5046798;28;20108;-72
2022/08/13 08:04:24;;;;;;;13.00;7.78;;;;;;;22.60;44.19;101582.41;5047855;28;20112;-72
2022/08/13 08:06:50;;;;;;;7.03;4.40;;;;;;;22.72;43.19;101575.44;5042397;28;20028;-72
2022/08/13 08:09:20;;;;;;;5.68;3.30;;;;;;;22.77;43.38;101581.34;5046982;28;20029;-72
2022/08/13 08:14:30;;;;;;;3.50;3.20;;;;;;;22.90;42.37;101572.47;5054039;28;20040;-72
2022/08/13 08:17:00;;;;;;;6.22;3.40;;;;;;;23.06;42.74;101583.03;5053436;28;20029;-72
2022/08/13 08:19:27;;;;;;;8.40;3.30;;;;;;;23.21;42.92;101575.84;5037824;28;20021;-72
2022/08/13 08:21:56;;;;;;;4.15;3.10;;;;;;;23.20;40.77;101568.81;5051996;28;20024;-71
2022/08/13 08:24:22;;;;;;;10.73;3.20;;;;;;;23.27;41.35;101567.47;5036583;28;20029;-72
2022/08/13 08:26:48;;;;;;;4.03;3.22;;;;;;;23.44;42.25;101577.00;5036367;28;20032;-72
2022/08/13 08:29:14;;;;;;;4.25;2.78;;;;;;;23.59;40.33;101575.13;5047168;28;20099;-71
2022/08/13 08:31:40;;;;;;;2.80;2.60;;;;;;;23.72;40.51;101583.19;5042533;28;20538;-71
2022/08/13 08:34:07;;;;;;;4.40;2.85;;;;;;;23.81;40.33;101578.09;5032877;28;20045;-72
2022/08/13 08:36:38;;;;;;;4.55;2.95;;;;;;;23.87;40.28;101576.84;5030010;28;20152;-72
2022/08/13 08:44:37;;;;;;;3.72;2.92;;;;;;;24.20;40.32;101586.13;5041619;28;20434;-72
2022/08/13 08:47:03;;;;;;;5.93;3.20;;;;;;;24.34;40.14;101585.19;5048187;28;20049;-73
2022/08/13 08:49:30;;;;;;;4.38;3.08;;;;;;;24.44;40.81;101580.94;5045875;28;20017;-73
2022/08/13 08:51:57;;;;;;;9.70;2.80;;;;;;;24.57;39.31;101580.94;5039612;28;20021;-73
2022/08/13 08:54:24;;;;;;;9.02;3.22;;;;;;;24.68;38.76;101584.50;5035694;28;20063;-72
2022/08/13 08:56:54;;;;;;;5.88;3.25;;;;;;;24.78;38.03;101579.38;5045342;28;20083;-74
2022/08/13 08:59:23;;;;;;;8.88;2.83;;;;;;;24.86;39.52;101574.34;5037838;28;20021;-73
2022/08/13 09:01:51;;;;;;;5.93;3.22;;;;;;;24.99;39.23;101580.50;5036383;28;20026;-74
2022/08/13 09:04:18;;;;;;;7.47;3.10;;;;;;;25.10;38.38;101586.88;5042049;28;20485;-73
2022/08/13 09:06:47;;;;;;;7.82;3.22;;;;;;;25.15;38.63;101572.28;5053760;28;20021;-73
2022/08/13 09:09:13;;;;;;;7.25;2.78;;;;;;;25.26;38.44;101579.47;5041556;28;20029;-70
2022/08/13 09:11:40;;;;;;;6.57;3.20;;;;;;;25.44;37.34;101575.47;5052940;28;20095;-70
2022/08/13 09:14:08;;;;;;;3.53;2.97;;;;;;;25.57;36.10;101563.84;5036076;28;20017;-70
2022/08/13 09:16:37;;;;;;;12.73;3.13;;;;;;;25.75;35.33;101567.78;5034422;28;20552;-70
2022/08/13 09:19:03;;;;;;;4.65;2.33;;;;;;;25.84;36.52;101559.13;5020645;28;20043;-69
2022/08/13 09:21:28;;;;;;;4.95;2.40;;;;;;;25.95;35.55;101557.44;5015012;28;20021;-70
2022/08/13 09:23:55;;;;;;;3.20;2.47;;;;;;;26.07;35.14;101559.16;5028335;28;20029;-70
2022/08/13 09:26:22;;;;;;;6.05;2.55;;;;;;;26.19;36.15;101558.19;5030777;28;20049;-70
2022/08/13 09:28:47;;;;;;;6.28;2.83;;;;;;;26.36;35.99;101556.88;5031500;28;20025;-71
2022/08/13 09:31:12;;;;;;;6.35;2.60;;;;;;;26.44;35.61;101558.94;5032906;28;20033;-70
2022/08/13 09:33:39;;;;;;;9.75;2.75;;;;;;;26.47;34.68;101559.53;5036065;28;20144;-70
2022/08/13 09:36:09;;;;;;;7.47;2.80;;;;;;;26.55;35.81;101564.31;5027985;28;20489;-70
2022/08/13 09:38:35;;;;;;;6.93;3.08;;;;;;;26.64;34.31;101557.38;5038228;28;20474;-78
2022/08/13 09:41:20;;;;;;;6.32;2.70;;;;;;;26.69;35.37;101544.50;5032615;28;20053;-75
2022/08/13 09:43:47;;;;;;;16.25;3.13;;;;;;;26.91;35.84;101554.28;5031597;28;20417;-79
2022/08/13 09:46:15;;;;;;;6.10;2.30;;;;;;;27.03;32.39;101553.31;5034342;28;20022;-70
2022/08/13 09:48:40;;;;;;;5.22;2.50;;;;;;;27.15;32.75;101560.38;5047211;28;20393;-78
2022/08/13 09:51:09;;;;;;;4.13;2.20;;;;;;;27.36;31.87;101556.88;5038397;28;20025;-71
2022/08/13 09:53:34;;;;;;;6.00;2.25;;;;;;;27.46;31.76;101547.09;5036805;28;20037;-70
2022/08/13 09:56:00;;;;;;;5.05;2.40;;;;;;;27.51;32.77;101556.44;5045527;28;20385;-70
2022/08/13 09:58:25;;;;;;;5.18;2.40;;;;;;;27.66;31.07;101543.56;5041282;28;20070;-70
2022/08/13 10:00:51;;;;;;;3.72;2.28;;;;;;;27.88;31.29;101548.00;5048675;28;20025;-71
2022/08/13 10:03:19;;;;;;;3.53;2.35;;;;;;;27.93;31.53;101542.25;5052113;28;20159;-71
2022/08/13 10:05:46;;;;;;;6.20;2.20;;;;;;;28.01;31.96;101534.38;5036288;28;20024;-70
2022/08/13 10:08:16;;;;;;;3.58;2.25;;;;;;;28.08;30.80;101542.75;5052126;28;20104;-71
2022/08/13 10:10:47;;;;;;;4.30;2.55;;;;;;;28.19;29.48;101531.97;5052164;28;20060;-71
2022/08/13 10:13:13;;;;;;;3.28;2.20;;;;;;;28.35;30.32;101531.44;5052185;28;20115;-71
2022/08/13 10:15:38;;;;;;;2.40;2.20;;;;;;;28.44;29.80;101526.16;5051408;28;20025;-71
2022/08/13 10:18:04;;;;;;;3.33;2.25;;;;;;;28.60;29.95;101531.00;5051419;28;20320;-71
2022/08/13 10:20:32;;;;;;;5.20;2.30;;;;;;;28.66;28.41;101519.72;5051410;28;20029;-71
2022/08/13 10:22:59;;;;;;;2.45;1.67;;;;;;;28.79;27.48;101521.31;5051982;28;20033;-71
2022/08/13 10:25:26;;;;;;;4.13;2.10;;;;;;;28.93;28.99;101512.84;5050683;28;20025;-71
2022/08/13 10:27:52;;;;;;;5.05;2.28;;;;;;;29.00;28.43;101503.28;5052169;28;20033;-71
2022/08/13 10:30:19;;;;;;;2.55;1.90;;;;;;;29.10;29.00;101516.72;5051590;28;20511;-71
2022/08/13 10:32:46;;;;;;;3.30;1.80;;;;;;;29.12;29.41;101514.75;5051321;28;20039;-71
2022/08/13 10:35:12;;;;;;;3.50;1.70;;;;;;;29.23;26.12;101505.69;5051818;28;20017;-71
2022/08/13 10:37:45;;;;;;;1.88;1.70;;;;;;;29.38;28.67;101518.56;5051304;28;20487;-71
2022/08/13 10:40:14;;;;;;;4.40;1.95;;;;;;;29.41;26.68;101512.06;5051129;28;20033;-71
2022/08/13 10:42:44;;;;;;;1.70;1.60;;;;;;;29.51;27.71;101512.06;5051579;28;20128;-71
2022/08/13 10:45:12;;;;;;;3.10;2.00;;;;;;;29.45;26.84;101513.47;5051833;28;20021;-71
2022/08/13 10:47:47;;;;;;;2.17;1.70;;;;;;;29.50;28.06;101510.38;5050377;28;20099;-71
2022/08/13 10:50:17;;;;;;;1.85;1.70;;;;;;;29.61;28.09;101505.69;5051831;28;20021;-71
2022/08/13 10:52:42;;;;;;;9.40;1.88;;;;;;;29.80;26.55;101504.81;5051653;28;20020;-71
2022/08/13 10:55:12;;;;;;;1.75;1.52;;;;;;;29.89;25.99;101505.78;5050928;28;20025;-71
2022/08/13 10:57:39;;;;;;;1.77;1.50;;;;;;;29.90;26.48;101504.78;5050948;28;20071;-71
2022/08/13 11:00:06;;;;;;;3.00;1.60;;;;;;;30.08;25.17;101503.03;5050889;28;20021;-71
2022/08/13 11:02:31;;;;;;;2.33;1.83;;;;;;;30.17;25.96;101503.97;5050975;28;20146;-71
2022/08/13 11:04:57;;;;;;;2.70;1.70;;;;;;;30.38;26.03;101503.78;5051591;28;20047;-71
2022/08/13 11:07:25;;;;;;;1.85;1.73;;;;;;;30.60;25.29;101498.97;5050513;28;20285;-71
2022/08/13 11:09:51;;;;;;;1.98;1.83;;;;;;;30.62;24.20;101505.91;5051765;28;20131;-71
2022/08/13 11:12:16;;;;;;;2.88;1.70;;;;;;;30.71;24.50;101496.94;5053676;28;20041;-71
2022/08/13 11:14:42;;;;;;;1.92;1.75;;;;;;;30.81;23.86;101494.22;5054859;28;20104;-71
2022/08/13 11:17:09;;;;;;;3.45;1.50;;;;;;;30.98;26.12;101490.69;5055463;28;20029;-71
2022/08/13 11:19:38;;;;;;;3.95;1.75;;;;;;;31.11;24.81;101489.44;5054674;28;20446;-71
2022/08/13 11:22:04;;;;;;;2.10;1.50;;;;;;;31.31;23.90;101482.88;5054916;28;20067;-71
2022/08/13 11:24:29;;;;;;;1.63;1.48;;;;;;;31.40;23.61;101487.38;5054972;28;20029;-71
2022/08/13 11:26:54;;;;;;;2.70;1.50;;;;;;;31.47;23.98;101485.72;5055525;28;20526;-71
2022/08/13 11:29:19;;;;;;;1.50;1.40;;;;;;;31.72;25.18;101485.91;5054054;28;20276;-71
2022/08/13 11:31:45;;;;;;;1.70;1.60;;;;;;;31.92;23.57;101476.63;5055136;28;20475;-71
2022/08/13 11:34:10;;;;;;;2.03;1.60;;;;;;;31.91;22.02;101468.69;5055156;28;20021;-71
2022/08/13 11:36:35;;;;;;;1.97;1.70;;;;;;;31.91;22.57;101472.22;5053559;28;20283;-71
2022/08/13 11:39:02;;;;;;;5.35;1.50;;;;;;;32.08;23.44;101466.91;5055330;28;20362;-71
2022/08/13 11:41:27;;;;;;;4.72;1.73;;;;;;;32.15;22.33;101467.97;5054403;28;20364;-71
2022/08/13 11:43:52;;;;;;;2.70;1.70;;;;;;;32.21;23.09;101472.72;5054259;28;20063;-71